createdAt,value
2023-02-17T00:00:14.709Z,58.81
2023-02-17T00:01:36.289Z,58.62
2023-02-17T00:02:58.551Z,58.67
2023-02-17T00:04:20.873Z,58.77
2023-02-17T00:05:41.887Z,58.46
2023-02-17T00:07:06.927Z,58.76
2023-02-17T00:08:28.381Z,58.71
2023-02-17T00:09:56.162Z,58.68
2023-02-17T00:11:24.063Z,58.62
2023-02-17T00:12:52.606Z,58.76
2023-02-17T00:14:16.088Z,58.91
2023-02-17T00:15:43.135Z,59.03
2023-02-17T00:17:05.656Z,58.99
2023-02-17T00:18:30.011Z,59.12
2023-02-17T00:19:55.207Z,59.03
2023-02-17T00:21:29.725Z,59.05
2023-02-17T00:22:54.306Z,58.95
2023-02-17T00:24:19.935Z,59.32
2023-02-17T00:28:03.668Z,59.13
2023-02-17T00:29:26.389Z,58.97
2023-02-17T00:31:21.137Z,59.00
2023-02-17T00:32:44.612Z,59.00
2023-02-17T00:34:28.485Z,58.98
2023-02-17T00:38:34.795Z,58.74
2023-02-17T00:39:57.715Z,59.01
2023-02-17T00:41:44.892Z,59.04
2023-02-17T00:45:20.801Z,59.06
2023-02-17T00:46:43.920Z,59.23
2023-02-17T00:48:06.588Z,59.29
2023-02-17T00:49:33.781Z,59.26
2023-02-17T00:50:57.857Z,58.99
2023-02-17T00:52:49.521Z,59.08
2023-02-17T00:54:16.982Z,58.98
2023-02-17T00:55:39.619Z,59.16
2023-02-17T00:57:02.575Z,59.18
2023-02-17T00:58:53.806Z,59.04
2023-02-17T01:00:22.656Z,59.08
2023-02-17T01:01:45.599Z,59.11
2023-02-17T01:03:17.138Z,59.03
2023-02-17T01:04:41.308Z,58.85
2023-02-17T01:06:08.967Z,59.14
2023-02-17T01:10:22.875Z,58.96
2023-02-17T01:12:55.955Z,59.00
2023-02-17T01:15:11.821Z,58.97
2023-02-17T01:16:51.703Z,59.00
2023-02-17T01:18:14.396Z,59.05
2023-02-17T01:19:38.012Z,59.26
2023-02-17T01:22:13.553Z,59.12
2023-02-17T01:23:35.975Z,58.93
2023-02-17T01:24:58.384Z,59.02
2023-02-17T01:26:31.611Z,58.84
2023-02-17T01:27:56.820Z,58.71
2023-02-17T01:29:33.420Z,59.28
2023-02-17T01:30:56.043Z,59.15
2023-02-17T01:32:18.858Z,59.16
2023-02-17T01:34:06.956Z,59.26
2023-02-17T01:35:41.526Z,59.20
2023-02-17T01:37:11.890Z,59.35
2023-02-17T01:38:43.593Z,59.48
2023-02-17T01:40:14.028Z,59.66
2023-02-17T01:41:36.778Z,59.63
2023-02-17T01:43:00.553Z,59.52
2023-02-17T01:44:25.209Z,59.69
2023-02-17T01:45:52.935Z,59.74
2023-02-17T01:47:14.948Z,59.73
2023-02-17T01:48:42.844Z,59.79
2023-02-17T01:50:03.916Z,59.49
2023-02-17T01:51:31.964Z,59.66
2023-02-17T01:52:54.876Z,59.32
2023-02-17T01:54:23.683Z,59.36
2023-02-17T01:55:47.471Z,59.24
2023-02-17T01:57:09.902Z,59.06
2023-02-17T01:58:33.479Z,59.27
2023-02-17T01:59:55.289Z,59.29
2023-02-17T02:01:19.508Z,59.08
2023-02-17T02:05:22.855Z,59.25
2023-02-17T02:06:48.169Z,59.10
2023-02-17T02:08:11.250Z,58.95
2023-02-17T02:10:10.824Z,58.91
2023-02-17T02:11:33.140Z,58.94
2023-02-17T02:12:55.458Z,58.96
2023-02-17T02:14:19.367Z,58.79
2023-02-17T02:15:48.691Z,58.91
2023-02-17T02:17:16.118Z,58.69
2023-02-17T02:18:49.011Z,58.70
2023-02-17T02:20:44.217Z,58.69
2023-02-17T02:22:43.938Z,58.56
2023-02-17T02:24:28.211Z,58.58
2023-02-17T02:26:16.398Z,58.66
2023-02-17T02:27:57.948Z,58.53
2023-02-17T02:29:46.114Z,58.64
2023-02-17T02:31:34.872Z,58.84
2023-02-17T02:33:07.996Z,58.71
2023-02-17T02:34:42.907Z,58.69
2023-02-17T02:36:11.074Z,58.63
2023-02-17T02:37:41.328Z,58.86
2023-02-17T02:39:10.807Z,58.86
2023-02-17T02:40:39.788Z,58.64
2023-02-17T02:42:06.864Z,58.91
2023-02-17T02:43:30.394Z,59.15
2023-02-17T02:44:53.828Z,58.91
2023-02-17T02:46:19.649Z,59.02
2023-02-17T02:47:48.013Z,58.91
2023-02-17T02:49:24.713Z,59.02
2023-02-17T02:51:01.571Z,58.90
2023-02-17T02:52:33.958Z,58.94
2023-02-17T02:54:16.923Z,58.83
2023-02-17T02:55:51.885Z,58.85
2023-02-17T02:57:41.032Z,58.98
2023-02-17T02:59:14.844Z,58.93
2023-02-17T03:00:48.004Z,59.26
2023-02-17T03:02:19.599Z,59.31
2023-02-17T03:03:48.913Z,59.54
2023-02-17T03:05:14.603Z,59.44
2023-02-17T03:06:42.996Z,59.37
2023-02-17T03:08:09.151Z,59.40
2023-02-17T03:09:41.460Z,59.14
2023-02-17T03:11:05.400Z,59.34
2023-02-17T03:12:31.261Z,59.37
2023-02-17T03:13:54.532Z,59.45
2023-02-17T03:15:27.854Z,59.38
2023-02-17T03:16:52.346Z,59.38
2023-02-17T03:18:14.545Z,59.32
2023-02-17T03:19:39.573Z,59.25
2023-02-17T03:21:20.013Z,59.32
2023-02-17T03:22:46.144Z,59.33
2023-02-17T03:24:09.745Z,59.43
2023-02-17T03:25:39.363Z,59.55
2023-02-17T03:27:01.822Z,59.33
2023-02-17T03:28:27.261Z,59.69
2023-02-17T03:29:48.202Z,59.68
2023-02-17T03:31:11.749Z,59.46
2023-02-17T03:32:32.961Z,59.57
2023-02-17T03:34:22.030Z,59.67
2023-02-17T03:35:46.749Z,59.62
2023-02-17T03:37:15.140Z,59.52
2023-02-17T03:38:37.235Z,59.82
2023-02-17T03:39:59.342Z,59.75
2023-02-17T03:41:20.616Z,59.60
2023-02-17T03:42:42.665Z,59.57
2023-02-17T03:44:08.509Z,59.75
2023-02-17T03:45:33.574Z,59.69
2023-02-17T03:47:02.317Z,59.82
2023-02-17T03:48:24.597Z,60.03
2023-02-17T03:49:47.583Z,60.06
2023-02-17T03:51:14.836Z,59.93
2023-02-17T03:52:38.042Z,60.38
2023-02-17T03:54:02.626Z,60.07
2023-02-17T03:55:26.684Z,60.15
2023-02-17T03:56:51.647Z,60.02
2023-02-17T03:58:17.506Z,60.05
2023-02-17T03:59:50.756Z,60.32
2023-02-17T04:01:17.008Z,60.12
2023-02-17T04:02:38.215Z,60.22
2023-02-17T04:04:00.408Z,60.12
2023-02-17T04:05:22.748Z,60.18
2023-02-17T04:06:43.954Z,60.23
2023-02-17T04:08:07.753Z,60.29
2023-02-17T04:09:32.583Z,60.59
2023-02-17T04:10:55.210Z,60.29
2023-02-17T04:12:17.276Z,60.76
2023-02-17T04:13:43.360Z,60.75
2023-02-17T04:15:04.980Z,60.88
2023-02-17T04:16:46.100Z,60.92
2023-02-17T04:18:07.483Z,61.22
2023-02-17T04:19:29.874Z,61.25
2023-02-17T04:20:59.703Z,61.10
2023-02-17T04:22:21.859Z,61.26
2023-02-17T04:23:44.997Z,61.46
2023-02-17T04:25:17.420Z,61.37
2023-02-17T04:26:38.782Z,61.60
2023-02-17T04:28:01.191Z,61.88
2023-02-17T04:29:23.594Z,62.00
2023-02-17T04:30:48.912Z,61.96
2023-02-17T04:32:11.357Z,62.18
2023-02-17T04:33:32.471Z,62.23
2023-02-17T04:34:54.752Z,62.29
2023-02-17T04:36:17.232Z,62.61
2023-02-17T04:37:39.564Z,62.55
2023-02-17T04:39:03.494Z,62.75
2023-02-17T04:40:29.730Z,62.81
2023-02-17T04:41:52.033Z,62.89
2023-02-17T04:43:38.849Z,62.98
2023-02-17T04:44:59.786Z,63.25
2023-02-17T04:46:22.369Z,62.95
2023-02-17T04:47:44.094Z,63.02
2023-02-17T04:49:06.639Z,63.18
2023-02-17T04:50:31.677Z,63.22
2023-02-17T04:51:53.743Z,63.27
2023-02-17T04:53:16.202Z,63.08
2023-02-17T04:54:39.031Z,63.30
2023-02-17T04:56:01.116Z,63.18
2023-02-17T04:57:35.200Z,63.36
2023-02-17T04:59:02.215Z,63.29
2023-02-17T05:00:24.829Z,63.36
2023-02-17T05:01:49.249Z,63.41
2023-02-17T05:03:11.981Z,63.50
2023-02-17T05:04:39.132Z,63.53
2023-02-17T05:06:01.461Z,63.70
2023-02-17T05:07:26.105Z,63.72
2023-02-17T05:08:48.553Z,63.76
2023-02-17T05:10:23.682Z,63.80
2023-02-17T05:11:46.816Z,63.75
2023-02-17T05:13:09.296Z,63.82
2023-02-17T05:14:30.076Z,63.80
2023-02-17T05:15:52.569Z,63.87
2023-02-17T05:17:14.921Z,63.99
2023-02-17T05:18:37.758Z,64.00
2023-02-17T05:20:00.747Z,64.09
2023-02-17T05:21:24.758Z,64.19
2023-02-17T05:22:49.876Z,64.26
2023-02-17T05:24:12.086Z,64.32
2023-02-17T05:25:38.528Z,64.11
2023-02-17T05:27:03.882Z,64.23
2023-02-17T05:28:30.443Z,64.39
2023-02-17T05:30:08.562Z,64.24
2023-02-17T05:31:47.919Z,64.32
2023-02-17T05:33:15.829Z,64.46
2023-02-17T05:34:40.339Z,64.52
2023-02-17T05:36:09.654Z,64.54
2023-02-17T05:37:34.137Z,64.45
2023-02-17T05:38:57.800Z,64.84
2023-02-17T05:40:25.864Z,64.55
2023-02-17T05:41:56.451Z,64.66
2023-02-17T05:43:22.353Z,64.37
2023-02-17T05:44:48.580Z,64.41
2023-02-17T05:46:12.490Z,64.48
2023-02-17T05:47:37.331Z,64.63
2023-02-17T05:49:02.812Z,64.79
2023-02-17T05:50:33.452Z,64.72
2023-02-17T05:52:00.061Z,64.57
2023-02-17T05:53:22.836Z,64.63
2023-02-17T05:54:49.750Z,64.67
2023-02-17T05:56:12.319Z,64.67
2023-02-17T05:57:39.154Z,64.51
2023-02-17T05:59:12.811Z,64.58
2023-02-17T06:01:02.343Z,64.51
2023-02-17T06:02:28.371Z,64.29
2023-02-17T06:03:50.778Z,64.53
2023-02-17T06:05:13.496Z,64.53
2023-02-17T06:06:38.816Z,64.37
2023-02-17T06:08:01.024Z,64.29
2023-02-17T06:09:34.221Z,64.23
2023-02-17T06:11:10.588Z,64.48
2023-02-17T06:12:38.895Z,64.47
2023-02-17T06:14:12.105Z,64.73
2023-02-17T06:15:39.842Z,64.64
2023-02-17T06:17:09.919Z,64.69
2023-02-17T06:18:40.775Z,64.69
2023-02-17T06:20:02.849Z,64.83
2023-02-17T06:21:24.933Z,65.07
2023-02-17T06:22:49.320Z,65.23
2023-02-17T06:24:25.600Z,65.25
2023-02-17T06:25:50.497Z,65.15
2023-02-17T06:27:16.742Z,65.28
2023-02-17T06:28:41.359Z,65.32
2023-02-17T06:30:14.067Z,65.49
2023-02-17T06:31:36.276Z,65.52
2023-02-17T06:32:59.355Z,65.90
2023-02-17T06:34:25.804Z,65.96
2023-02-17T06:35:55.392Z,66.03
2023-02-17T06:37:17.633Z,66.17
2023-02-17T06:38:40.205Z,66.12
2023-02-17T06:40:10.104Z,66.38
2023-02-17T06:41:34.734Z,66.61
2023-02-17T06:42:56.958Z,66.58
2023-02-17T06:44:21.058Z,66.68
2023-02-17T06:45:46.276Z,66.62
2023-02-17T06:47:11.031Z,66.76
2023-02-17T06:48:36.825Z,66.84
2023-02-17T06:50:01.924Z,67.26
2023-02-17T06:51:32.326Z,67.10
2023-02-17T06:52:54.490Z,67.16
2023-02-17T06:54:16.478Z,67.13
2023-02-17T06:55:39.657Z,67.12
2023-02-17T06:57:01.879Z,66.87
2023-02-17T06:58:27.095Z,67.04
2023-02-17T06:59:52.501Z,67.14
2023-02-17T07:01:27.499Z,67.08
2023-02-17T07:02:50.117Z,66.93
2023-02-17T07:04:12.733Z,66.97
2023-02-17T07:05:49.339Z,66.90
2023-02-17T07:07:27.277Z,66.76
2023-02-17T07:09:23.112Z,66.54
2023-02-17T07:12:38.764Z,66.67
2023-02-17T07:14:02.867Z,66.67
2023-02-17T07:15:25.404Z,66.72
2023-02-17T07:16:56.324Z,66.60
2023-02-17T07:18:21.720Z,66.60
2023-02-17T07:19:51.584Z,66.61
2023-02-17T07:21:19.032Z,66.59
2023-02-17T07:22:55.053Z,66.91
2023-02-17T07:24:17.663Z,66.56
2023-02-17T07:25:48.191Z,66.46
2023-02-17T07:27:13.465Z,66.57
2023-02-17T07:28:37.424Z,66.50
2023-02-17T07:30:01.617Z,66.46
2023-02-17T07:31:29.926Z,66.45
2023-02-17T07:33:02.681Z,66.52
2023-02-17T07:34:24.898Z,66.34
2023-02-17T07:35:49.021Z,66.30
2023-02-17T07:37:12.727Z,66.34
2023-02-17T07:38:43.247Z,66.32
2023-02-17T07:40:12.061Z,66.24
2023-02-17T07:42:06.503Z,66.06
2023-02-17T07:47:07.765Z,66.18
2023-02-17T07:49:14.440Z,66.02
2023-02-17T07:51:06.107Z,65.78
2023-02-17T08:00:23.716Z,65.76
2023-02-17T08:02:48.586Z,65.48
2023-02-17T08:16:38.222Z,65.28
2023-02-17T08:21:15.977Z,65.00
2023-02-17T08:22:50.463Z,64.98
2023-02-17T08:24:51.467Z,64.94
2023-02-17T08:27:15.854Z,64.72
2023-02-17T08:45:28.381Z,63.82
2023-02-17T08:49:23.147Z,63.61
2023-02-17T08:50:50.295Z,63.63
2023-02-17T08:52:40.119Z,63.99
2023-02-17T08:54:13.724Z,63.51
2023-02-17T08:55:48.508Z,63.78
2023-02-17T08:57:16.691Z,63.90
2023-02-17T08:58:46.765Z,64.00
2023-02-17T09:00:14.011Z,63.85
2023-02-17T09:04:57.100Z,63.71
2023-02-17T09:07:06.575Z,63.65
2023-02-17T09:09:32.339Z,63.58
2023-02-17T09:11:21.153Z,63.81
2023-02-17T09:12:46.471Z,63.86
2023-02-17T09:15:15.708Z,64.06
2023-02-17T09:16:31.429Z,63.92
2023-02-17T09:18:05.771Z,63.91
2023-02-17T09:20:19.479Z,63.92
2023-02-17T09:23:07.405Z,63.82
2023-02-17T09:24:41.303Z,63.79
2023-02-17T09:26:06.293Z,63.98
2023-02-17T09:27:32.731Z,64.09
2023-02-17T09:29:03.679Z,63.91
2023-02-17T09:30:39.936Z,63.82
2023-02-17T09:32:08.572Z,63.60
2023-02-17T09:34:25.090Z,63.65
2023-02-17T09:35:48.781Z,63.71
2023-02-17T09:40:01.995Z,63.67
2023-02-17T09:41:36.444Z,63.70
2023-02-17T09:43:54.457Z,63.46
2023-02-17T09:45:25.836Z,63.21
2023-02-17T09:47:01.694Z,63.22
2023-02-17T09:50:15.659Z,63.34
2023-02-17T09:51:45.481Z,63.36
2023-02-17T09:53:32.703Z,63.17
2023-02-17T09:55:07.286Z,63.26
2023-02-17T09:56:41.804Z,63.11
2023-02-17T09:58:17.736Z,63.14
2023-02-17T10:12:59.227Z,62.80
2023-02-17T10:14:40.142Z,62.81
2023-02-17T10:16:35.129Z,62.65
2023-02-17T10:20:11.585Z,62.62
2023-02-17T10:22:11.091Z,62.30
2023-02-17T10:24:03.282Z,62.30
2023-02-17T10:26:23.721Z,62.33
2023-02-17T10:28:21.247Z,62.09
2023-02-17T10:30:29.633Z,61.85
2023-02-17T10:32:22.741Z,61.88
2023-02-17T10:33:55.355Z,61.68
2023-02-17T10:35:58.872Z,61.38
2023-02-17T10:38:02.861Z,61.16
2023-02-17T10:39:48.463Z,61.25
2023-02-17T10:46:57.323Z,60.71
2023-02-17T10:50:33.004Z,60.60
2023-02-17T10:52:06.544Z,60.56
2023-02-17T10:53:40.135Z,60.27
2023-02-17T10:57:41.896Z,60.10
2023-02-17T11:00:17.357Z,60.18
2023-02-17T11:07:37.296Z,60.00
2023-02-17T11:09:10.966Z,59.81
2023-02-17T11:10:45.314Z,59.62
2023-02-17T11:12:17.656Z,59.38
2023-02-17T11:13:44.765Z,59.71
2023-02-17T11:15:18.112Z,59.58
2023-02-17T11:16:46.442Z,59.52
2023-02-17T11:18:20.507Z,59.52
2023-02-17T11:19:42.809Z,59.44
2023-02-17T11:21:10.040Z,59.25
2023-02-17T11:22:35.982Z,59.15
2023-02-17T11:24:02.351Z,58.78
2023-02-17T11:25:29.462Z,58.88
2023-02-17T11:27:00.582Z,58.85
2023-02-17T11:28:24.983Z,58.85
2023-02-17T11:29:52.858Z,58.86
2023-02-17T11:31:27.255Z,58.86
2023-02-17T11:32:50.567Z,58.82
2023-02-17T11:34:16.839Z,58.65
2023-02-17T11:35:51.682Z,58.49
2023-02-17T11:37:34.912Z,58.37
2023-02-17T11:38:59.714Z,58.73
2023-02-17T11:40:28.725Z,58.75
2023-02-17T11:41:53.908Z,58.57
2023-02-17T11:43:20.681Z,58.83
2023-02-17T11:44:43.864Z,58.48
2023-02-17T11:46:25.349Z,58.32
2023-02-17T11:48:23.933Z,57.89
2023-02-17T11:50:10.815Z,57.59
2023-02-17T11:51:54.779Z,57.52
2023-02-17T11:53:32.400Z,57.33
2023-02-17T11:55:27.761Z,56.95
2023-02-17T11:57:06.169Z,56.97
2023-02-17T11:58:53.902Z,56.76
2023-02-17T12:00:35.776Z,56.44
2023-02-17T12:03:33.481Z,56.65
2023-02-17T12:07:50.997Z,56.57
2023-02-17T12:09:26.827Z,56.33
2023-02-17T12:13:35.384Z,56.16
2023-02-17T12:15:05.337Z,55.93
2023-02-17T12:16:56.186Z,55.79
2023-02-17T12:18:52.091Z,55.80
2023-02-17T12:20:48.715Z,55.79
2023-02-17T12:22:39.946Z,55.73
2023-02-17T12:24:49.123Z,56.08
2023-02-17T12:26:32.056Z,55.92
2023-02-17T12:28:09.968Z,56.41
2023-02-17T12:30:51.305Z,56.12
2023-02-17T12:32:34.052Z,56.37
2023-02-17T12:34:25.319Z,56.48
2023-02-17T12:36:52.822Z,56.72
2023-02-17T12:38:27.544Z,56.83
2023-02-17T12:40:53.730Z,56.83
2023-02-17T12:43:26.231Z,57.27
2023-02-17T12:55:31.549Z,58.27
2023-02-17T12:58:01.616Z,58.14
2023-02-17T13:03:00.685Z,58.26
2023-02-17T13:04:32.629Z,58.20
2023-02-17T13:06:23.263Z,58.35
2023-02-17T13:08:06.712Z,58.25
2023-02-17T13:09:38.887Z,58.27
2023-02-17T13:11:15.729Z,58.25
2023-02-17T13:16:41.725Z,58.16
2023-02-17T13:18:27.476Z,58.26
2023-02-17T13:20:09.918Z,58.45
2023-02-17T13:21:52.576Z,58.27
2023-02-17T13:23:29.732Z,58.37
2023-02-17T13:30:33.539Z,58.43
2023-02-17T13:33:17.265Z,58.60
2023-02-17T13:34:44.026Z,58.82
2023-02-17T13:36:26.105Z,58.81
2023-02-17T13:39:01.953Z,59.03
2023-02-17T13:41:53.120Z,59.23
2023-02-17T13:45:54.438Z,59.29
2023-02-17T13:46:53.963Z,59.46
2023-02-17T13:48:28.198Z,59.39
2023-02-17T13:50:04.162Z,59.61
2023-02-17T13:51:37.759Z,59.74
2023-02-17T13:53:00.890Z,59.54
2023-02-17T13:54:30.024Z,59.60
2023-02-17T13:56:16.968Z,59.45
2023-02-17T13:57:59.848Z,59.84
2023-02-17T13:59:26.073Z,59.85
2023-02-17T14:01:07.703Z,60.12
2023-02-17T14:02:38.697Z,60.07
2023-02-17T14:04:06.712Z,60.11
2023-02-17T14:05:47.746Z,60.14
2023-02-17T14:07:23.474Z,60.28
2023-02-17T14:08:52.335Z,60.68
2023-02-17T14:10:23.261Z,60.91
2023-02-17T14:11:48.128Z,61.03
2023-02-17T14:13:29.334Z,61.14
2023-02-17T14:14:57.607Z,61.52
2023-02-17T14:16:36.155Z,61.44
2023-02-17T14:21:09.242Z,61.84
2023-02-17T14:22:59.184Z,62.57
2023-02-17T14:24:41.341Z,62.56
2023-02-17T14:26:13.149Z,62.95
2023-02-17T14:27:54.150Z,63.12
2023-02-17T14:29:20.462Z,63.01
2023-02-17T14:30:45.159Z,63.31
2023-02-17T14:32:40.075Z,63.49
2023-02-17T14:34:06.890Z,63.70
2023-02-17T14:35:48.234Z,63.79
2023-02-17T14:37:24.919Z,63.71
2023-02-17T14:40:04.808Z,63.81
2023-02-17T14:42:56.439Z,64.04
2023-02-17T14:44:23.285Z,64.01
2023-02-17T14:45:48.776Z,64.12
2023-02-17T14:47:14.314Z,64.13
2023-02-17T14:48:40.705Z,64.05
2023-02-17T14:54:36.155Z,64.24
2023-02-17T14:58:31.585Z,64.37
2023-02-17T15:00:00.673Z,64.36
2023-02-17T15:01:41.902Z,64.47
2023-02-17T15:03:06.422Z,64.56
2023-02-17T15:04:32.147Z,64.52
2023-02-17T15:06:03.073Z,64.46
2023-02-17T15:07:54.364Z,64.60
2023-02-17T15:09:21.707Z,64.77
2023-02-17T15:10:44.972Z,64.71
2023-02-17T15:12:29.433Z,64.79
2023-02-17T15:13:54.626Z,64.94
2023-02-17T15:15:32.361Z,64.93
2023-02-17T15:16:57.654Z,64.86
2023-02-17T15:18:21.367Z,64.71
2023-02-17T15:19:45.122Z,64.86
2023-02-17T15:21:19.156Z,64.86
2023-02-17T15:22:55.883Z,64.80
2023-02-17T15:24:22.276Z,64.74
2023-02-17T15:25:47.655Z,64.71
2023-02-17T15:27:17.674Z,64.67
2023-02-17T15:28:40.517Z,64.71
2023-02-17T15:30:28.544Z,64.83
2023-02-17T15:31:57.327Z,64.50
2023-02-17T15:33:21.620Z,64.61
2023-02-17T15:34:46.800Z,64.59
2023-02-17T15:36:13.775Z,64.50
2023-02-17T15:37:41.435Z,64.69
2023-02-17T15:39:04.337Z,64.55
2023-02-17T15:40:31.638Z,64.53
2023-02-17T15:42:20.422Z,64.70
2023-02-17T15:43:48.488Z,64.69
2023-02-17T15:45:44.292Z,64.49
2023-02-17T15:47:15.428Z,64.71
2023-02-17T15:48:45.011Z,64.97
2023-02-17T15:50:20.254Z,64.62
2023-02-17T15:51:43.320Z,64.75
2023-02-17T15:53:08.932Z,64.77
2023-02-17T15:54:43.408Z,64.65
2023-02-17T15:56:20.531Z,64.67
2023-02-17T15:57:58.546Z,64.91
2023-02-17T15:59:26.321Z,64.85
2023-02-17T16:01:20.048Z,64.75
2023-02-17T16:03:11.549Z,64.80
2023-02-17T16:04:38.573Z,64.84
2023-02-17T16:06:06.079Z,64.98
2023-02-17T16:09:23.895Z,65.22
2023-02-17T16:10:52.041Z,65.46
2023-02-17T16:14:38.176Z,65.51
2023-02-17T16:16:08.223Z,65.42
2023-02-17T16:17:30.909Z,65.54
2023-02-17T16:19:00.408Z,65.70
2023-02-17T16:20:27.648Z,65.90
2023-02-17T16:21:50.190Z,65.84
2023-02-17T16:23:12.823Z,65.92
2023-02-17T16:25:06.304Z,66.04
2023-02-17T16:26:50.813Z,66.06
2023-02-17T16:28:36.305Z,65.93
2023-02-17T16:30:00.212Z,66.20
2023-02-17T16:31:30.014Z,66.54
2023-02-17T16:32:55.980Z,66.66
2023-02-17T16:35:16.795Z,67.11
2023-02-17T16:37:05.321Z,67.12
2023-02-17T16:38:42.477Z,67.11
2023-02-17T16:42:48.674Z,67.34
2023-02-17T16:44:22.554Z,67.43
2023-02-17T16:47:19.613Z,68.03
2023-02-17T16:54:42.535Z,68.00
2023-02-17T17:01:44.327Z,68.16
2023-02-17T17:05:59.745Z,68.12
2023-02-17T17:10:40.700Z,68.27
2023-02-17T17:12:19.729Z,68.33
2023-02-17T17:13:54.370Z,68.56
2023-02-17T17:15:56.062Z,68.74
2023-02-17T17:22:00.915Z,68.91
2023-02-17T17:26:35.923Z,69.07
2023-02-17T17:28:00.770Z,69.22
2023-02-17T17:29:26.404Z,69.44
2023-02-17T17:30:52.612Z,69.86
2023-02-17T17:32:18.156Z,70.01
2023-02-17T17:33:47.999Z,70.24
2023-02-17T17:35:10.762Z,70.24
2023-02-17T17:38:27.962Z,70.46
2023-02-17T17:39:52.108Z,70.57
2023-02-17T17:41:35.459Z,70.82
2023-02-17T17:43:09.632Z,70.61
2023-02-17T17:44:40.822Z,70.63
2023-02-17T17:50:26.229Z,70.49
2023-02-17T17:50:28.922Z,70.39
2023-02-17T17:52:24.083Z,70.59
2023-02-17T17:57:52.651Z,70.64
2023-02-17T17:59:28.906Z,70.81
2023-02-17T18:01:23.882Z,70.86
2023-02-17T18:08:24.871Z,70.86
2023-02-17T18:09:59.592Z,70.65
2023-02-17T18:22:47.964Z,70.74
2023-02-17T18:24:11.780Z,70.75
2023-02-17T18:26:20.723Z,70.76
2023-02-17T18:27:50.743Z,70.64
2023-02-17T18:29:39.353Z,70.63
2023-02-17T18:31:15.784Z,70.69
2023-02-17T18:36:50.348Z,70.62
2023-02-17T18:38:36.470Z,70.19
2023-02-17T18:40:32.384Z,70.20
2023-02-17T18:45:05.068Z,70.13
2023-02-17T18:47:07.241Z,70.24
2023-02-17T18:52:58.866Z,69.68
2023-02-17T19:56:37.677Z,68.12
2023-02-17T19:58:20.737Z,68.19
2023-02-17T20:00:29.073Z,68.49
2023-02-17T20:02:35.717Z,68.69
2023-02-17T20:04:32.177Z,68.48
2023-02-17T20:06:21.155Z,68.50
2023-02-17T20:07:58.575Z,68.54
2023-02-17T20:12:36.278Z,68.61
2023-02-17T20:14:04.268Z,68.84
2023-02-17T20:15:30.080Z,68.98
2023-02-17T20:16:56.671Z,69.45
2023-02-17T20:18:21.934Z,69.59
2023-02-17T20:20:25.430Z,70.15
2023-02-17T20:21:52.638Z,70.16
2023-02-17T20:23:29.701Z,70.40
2023-02-17T20:26:02.246Z,70.80
2023-02-17T20:27:33.987Z,70.85
2023-02-17T20:32:12.085Z,71.22
2023-02-17T20:36:26.378Z,71.54
2023-02-17T20:38:11.559Z,71.78
2023-02-17T20:39:39.598Z,71.99
2023-02-17T20:41:23.974Z,72.28
2023-02-17T21:35:23.381Z,72.01
2023-02-17T21:39:13.215Z,71.94
2023-02-17T21:41:44.640Z,71.99
2023-02-17T22:57:08.295Z,71.43
2023-02-17T22:59:47.037Z,71.14
2023-02-17T23:04:13.235Z,70.78
2023-02-17T23:11:51.446Z,69.92
2023-02-17T23:37:20.751Z,69.33
2023-02-17T23:38:48.648Z,69.53
2023-02-17T23:40:11.892Z,69.30
2023-02-17T23:41:34.687Z,69.68
2023-02-17T23:43:00.827Z,69.91
2023-02-17T23:44:32.940Z,70.07
2023-02-17T23:46:03.398Z,70.13
2023-02-17T23:47:46.673Z,70.57
